createdAt,value
2022-09-12T00:02:24.289Z,15.35
2022-09-12T00:04:54.641Z,15.34
2022-09-12T00:07:24.725Z,15.34
2022-09-12T00:09:54.838Z,15.40
2022-09-12T00:12:27.562Z,15.38
2022-09-12T00:14:57.689Z,15.38
2022-09-12T00:17:27.878Z,15.35
2022-09-12T00:19:58.492Z,15.38
2022-09-12T00:22:28.749Z,15.41
2022-09-12T00:24:58.831Z,15.48
2022-09-12T00:27:31.627Z,15.54
2022-09-12T00:30:01.781Z,15.55
2022-09-12T00:32:31.785Z,15.57
2022-09-12T00:35:02.879Z,15.61
2022-09-12T00:37:33.044Z,15.68
2022-09-12T00:40:03.269Z,15.73
2022-09-12T00:42:36.119Z,15.74
2022-09-12T00:45:07.490Z,15.76
2022-09-12T00:47:39.631Z,15.78
2022-09-12T00:50:13.806Z,15.79
2022-09-12T00:52:47.706Z,15.78
2022-09-12T00:55:21.937Z,15.80
2022-09-12T00:58:01.846Z,15.84
2022-09-12T01:00:32.986Z,15.89
2022-09-12T01:03:07.949Z,15.91
2022-09-12T01:05:44.615Z,15.95
2022-09-12T01:08:15.188Z,16.00
2022-09-12T01:10:46.003Z,16.03
2022-09-12T01:13:19.270Z,16.01
2022-09-12T01:15:49.504Z,16.00
2022-09-12T01:18:33.414Z,15.97
2022-09-12T01:21:18.021Z,15.96
2022-09-12T01:24:53.467Z,15.92
2022-09-12T01:27:58.154Z,15.83
2022-09-12T01:30:47.917Z,15.75
2022-09-12T01:33:38.097Z,15.68
2022-09-12T01:36:34.631Z,15.67
2022-09-12T01:39:07.787Z,15.68
2022-09-12T01:41:56.011Z,15.62
2022-09-12T01:44:38.481Z,15.54
2022-09-12T01:47:16.921Z,15.50
2022-09-12T01:49:58.240Z,15.46
2022-09-12T01:52:35.117Z,15.43
2022-09-12T01:55:13.117Z,15.38
2022-09-12T01:57:50.024Z,15.36
2022-09-12T02:00:20.523Z,15.27
2022-09-12T02:02:58.962Z,15.24
2022-09-12T02:05:35.646Z,15.22
2022-09-12T02:08:11.274Z,15.21
2022-09-12T02:10:48.524Z,15.20
2022-09-12T02:13:25.972Z,15.16
2022-09-12T02:16:01.108Z,15.11
2022-09-12T02:18:37.172Z,15.10
2022-09-12T02:21:09.343Z,15.05
2022-09-12T02:23:45.379Z,15.06
2022-09-12T02:26:23.500Z,15.08
2022-09-12T02:28:56.103Z,15.06
2022-09-12T02:31:31.978Z,15.07
2022-09-12T02:34:21.192Z,15.07
2022-09-12T02:37:00.746Z,15.11
2022-09-12T02:39:31.127Z,15.10
2022-09-12T02:42:03.852Z,15.13
2022-09-12T02:44:36.502Z,15.18
2022-09-12T02:47:13.011Z,15.22
2022-09-12T02:49:46.414Z,15.25
2022-09-12T02:52:16.680Z,15.28
2022-09-12T02:54:47.255Z,15.32
2022-09-12T02:57:23.230Z,15.35
2022-09-12T02:59:56.546Z,15.36
2022-09-12T03:02:46.501Z,15.36
2022-09-12T03:05:28.152Z,15.37
2022-09-12T03:09:00.506Z,15.39
2022-09-12T03:12:08.625Z,15.43
2022-09-12T03:15:01.665Z,15.46
2022-09-12T03:17:48.542Z,15.47
2022-09-12T03:20:33.586Z,15.56
2022-09-12T03:23:09.092Z,15.57
2022-09-12T03:25:47.196Z,15.60
2022-09-12T03:28:19.979Z,15.63
2022-09-12T03:30:53.637Z,15.68
2022-09-12T03:33:26.754Z,15.71
2022-09-12T03:35:59.799Z,15.71
2022-09-12T03:38:29.808Z,15.74
2022-09-12T03:40:59.843Z,15.62
2022-09-12T03:43:29.846Z,15.52
2022-09-12T03:45:59.922Z,15.57
2022-09-12T03:48:31.819Z,15.64
2022-09-12T03:51:08.918Z,15.72
2022-09-12T03:53:39.599Z,15.77
2022-09-12T03:56:12.109Z,15.84
2022-09-12T03:58:42.700Z,15.86
2022-09-12T04:01:14.368Z,15.81
2022-09-12T04:03:45.119Z,15.75
2022-09-12T04:06:21.102Z,15.80
2022-09-12T04:08:53.463Z,15.89
2022-09-12T04:11:25.567Z,15.92
2022-09-12T04:13:55.618Z,15.95
2022-09-12T04:16:25.732Z,15.93
2022-09-12T04:18:55.868Z,15.79
2022-09-12T04:21:28.616Z,15.70
2022-09-12T04:23:58.721Z,15.72
2022-09-12T04:26:29.941Z,15.58
2022-09-12T04:29:00.040Z,15.55
2022-09-12T04:31:30.253Z,15.61
2022-09-12T04:34:02.686Z,15.55
2022-09-12T04:36:35.890Z,15.59
2022-09-12T04:39:08.071Z,15.57
2022-09-12T04:41:41.883Z,15.56
2022-09-12T04:44:16.434Z,15.60
2022-09-12T04:46:49.551Z,15.67
2022-09-12T04:49:19.712Z,15.75
2022-09-12T04:51:52.566Z,15.76
2022-09-12T04:54:23.152Z,15.78
2022-09-12T04:56:54.961Z,15.79
2022-09-12T04:59:25.733Z,15.80
2022-09-12T05:01:55.902Z,15.77
2022-09-12T05:04:26.126Z,15.76
2022-09-12T05:06:58.905Z,15.70
2022-09-12T05:09:29.301Z,15.69
2022-09-12T05:12:04.722Z,15.67
2022-09-12T05:14:36.656Z,15.64
2022-09-12T05:17:08.107Z,15.72
2022-09-12T05:19:38.273Z,15.76
2022-09-12T05:22:11.065Z,15.84
2022-09-12T05:24:47.294Z,15.88
2022-09-12T05:27:20.260Z,15.83
2022-09-12T05:29:50.364Z,15.80
2022-09-12T05:32:20.918Z,15.80
2022-09-12T05:34:51.031Z,15.82
2022-09-12T05:37:24.034Z,15.83
2022-09-12T05:39:54.245Z,15.87
2022-09-12T05:42:24.498Z,15.95
2022-09-12T05:44:54.570Z,16.10
2022-09-12T05:47:24.565Z,16.10
2022-09-12T05:49:54.936Z,16.19
2022-09-12T05:52:27.766Z,16.19
2022-09-12T05:54:57.941Z,16.24
2022-09-12T05:57:28.841Z,16.26
2022-09-12T05:59:59.227Z,16.27
2022-09-12T06:02:29.414Z,16.31
2022-09-12T06:04:59.733Z,16.41
2022-09-12T06:07:32.934Z,16.49
2022-09-12T06:10:03.024Z,16.41
2022-09-12T06:12:33.251Z,16.45
2022-09-12T06:15:03.372Z,16.57
2022-09-12T06:17:33.425Z,16.42
2022-09-12T06:20:04.208Z,16.34
2022-09-12T06:22:36.686Z,16.38
2022-09-12T06:25:07.492Z,16.40
2022-09-12T06:27:37.705Z,16.48
2022-09-12T06:30:10.112Z,16.48
2022-09-12T06:32:40.183Z,16.53
2022-09-12T06:35:12.446Z,16.42
2022-09-12T06:37:47.300Z,16.56
2022-09-12T06:40:17.671Z,16.51
2022-09-12T06:42:48.783Z,16.48
2022-09-12T06:45:35.042Z,16.42
2022-09-12T06:48:05.867Z,16.37
2022-09-12T06:50:35.681Z,16.39
2022-09-12T06:53:08.369Z,16.45
2022-09-12T06:55:39.226Z,16.61
2022-09-12T06:58:09.415Z,16.73
2022-09-12T07:00:40.200Z,16.89
2022-09-12T07:03:10.423Z,17.15
2022-09-12T07:05:40.492Z,17.46
2022-09-12T07:08:13.114Z,17.77
2022-09-12T07:10:43.153Z,18.19
2022-09-12T07:13:13.965Z,18.70
2022-09-12T07:15:43.733Z,19.00
2022-09-12T07:18:14.260Z,18.98
2022-09-12T07:20:44.323Z,19.36
2022-09-12T07:23:17.027Z,19.75
2022-09-12T07:25:47.091Z,20.07
2022-09-12T07:28:17.155Z,20.11
2022-09-12T07:30:47.802Z,20.33
2022-09-12T07:33:17.843Z,20.77
2022-09-12T07:35:48.024Z,20.92
2022-09-12T07:38:20.828Z,20.95
2022-09-12T07:40:51.176Z,21.75
2022-09-12T07:43:21.227Z,22.50
2022-09-12T07:45:51.420Z,22.95
2022-09-12T07:48:21.461Z,23.23
2022-09-12T07:51:00.156Z,23.77
2022-09-12T07:53:37.064Z,24.53
2022-09-12T07:56:10.391Z,25.44
2022-09-12T07:58:43.097Z,25.77
2022-09-12T08:01:17.836Z,25.97
2022-09-12T08:03:50.540Z,24.84
2022-09-12T08:06:24.277Z,24.07
2022-09-12T08:08:59.199Z,23.43
2022-09-12T08:11:31.915Z,23.04
2022-09-12T08:14:03.220Z,22.79
2022-09-12T08:16:35.787Z,22.26
2022-09-12T08:19:07.187Z,22.04
2022-09-12T08:21:37.324Z,22.00
2022-09-12T08:24:10.622Z,21.95
2022-09-12T08:26:41.064Z,21.90
2022-09-12T08:29:11.307Z,21.76
2022-09-12T08:31:42.628Z,21.72
2022-09-12T08:34:12.750Z,21.63
2022-09-12T08:36:43.090Z,21.40
2022-09-12T08:39:17.336Z,21.66
2022-09-12T08:41:49.632Z,22.38
2022-09-12T08:44:40.165Z,22.99
2022-09-12T08:47:22.139Z,25.92
2022-09-12T08:50:03.195Z,27.65
2022-09-12T08:52:39.750Z,28.57
2022-09-12T08:55:27.986Z,30.04
2022-09-12T08:57:58.257Z,30.87
2022-09-12T09:00:38.170Z,31.05
2022-09-12T09:04:04.322Z,31.91
2022-09-12T09:06:54.664Z,33.02
2022-09-12T09:09:39.741Z,31.77
2022-09-12T09:12:21.500Z,29.95
2022-09-12T09:15:25.141Z,27.55
2022-09-12T09:18:00.621Z,26.04
2022-09-12T09:20:37.259Z,25.06
2022-09-12T09:23:15.459Z,24.35
2022-09-12T09:25:55.650Z,23.98
2022-09-12T09:28:38.307Z,23.54
2022-09-12T09:31:11.435Z,23.25
2022-09-12T09:33:41.605Z,22.89
2022-09-12T09:36:25.338Z,22.66
2022-09-12T09:39:06.589Z,22.50
2022-09-12T09:41:51.163Z,22.41
2022-09-12T09:44:23.971Z,22.41
2022-09-12T09:46:58.700Z,22.62
2022-09-12T09:49:32.416Z,25.21
2022-09-12T09:52:03.217Z,27.37
2022-09-12T09:54:40.757Z,29.13
2022-09-12T09:57:41.547Z,30.00
2022-09-12T10:00:31.854Z,30.89
2022-09-12T10:03:31.769Z,31.57
2022-09-12T10:06:05.381Z,31.38
2022-09-12T10:08:38.598Z,31.72
2022-09-12T10:11:22.470Z,31.38
2022-09-12T10:14:00.109Z,31.86
2022-09-12T10:16:35.264Z,32.45
2022-09-12T10:19:07.384Z,31.14
2022-09-12T10:21:41.477Z,29.89
2022-09-12T10:24:25.444Z,29.01
2022-09-12T10:27:00.403Z,29.99
2022-09-12T10:29:34.570Z,31.00
2022-09-12T10:32:12.764Z,31.01
2022-09-12T10:34:47.692Z,31.35
2022-09-12T10:37:27.711Z,31.61
2022-09-12T10:40:00.350Z,31.84
2022-09-12T10:42:48.781Z,32.47
2022-09-12T10:45:32.090Z,32.96
2022-09-12T10:48:24.019Z,33.34
2022-09-12T10:50:54.341Z,33.69
2022-09-12T10:53:31.037Z,34.27
2022-09-12T10:56:13.143Z,35.06
2022-09-12T10:58:58.985Z,35.88
2022-09-12T11:01:44.331Z,36.46
2022-09-12T11:04:42.184Z,37.08
2022-09-12T11:07:34.143Z,36.89
2022-09-12T11:10:19.298Z,35.41
2022-09-12T11:12:57.289Z,33.51
2022-09-12T11:15:47.547Z,32.13
2022-09-12T11:18:38.075Z,30.79
2022-09-12T11:21:25.295Z,29.77
2022-09-12T11:24:53.366Z,29.06
2022-09-12T11:27:52.233Z,28.27
2022-09-12T11:30:22.399Z,28.02
2022-09-12T11:33:17.993Z,27.81
2022-09-12T11:35:55.594Z,28.08
2022-09-12T11:38:55.880Z,30.63
2022-09-12T11:41:29.665Z,32.45
2022-09-12T11:44:06.967Z,33.34
2022-09-12T11:46:40.600Z,33.96
2022-09-12T11:49:24.067Z,34.55
2022-09-12T11:52:01.008Z,34.84
2022-09-12T11:54:40.912Z,35.36
2022-09-12T11:57:19.898Z,35.94
2022-09-12T11:59:56.130Z,36.43
2022-09-12T12:02:31.019Z,36.66
2022-09-12T12:05:20.715Z,36.81
2022-09-12T12:07:56.851Z,37.05
2022-09-12T12:10:38.761Z,37.30
2022-09-12T12:13:18.175Z,37.33
2022-09-12T12:15:51.995Z,36.85
2022-09-12T12:18:26.587Z,37.17
2022-09-12T12:20:58.864Z,37.39
2022-09-12T12:23:33.037Z,38.15
2022-09-12T12:26:07.361Z,38.30
2022-09-12T12:29:02.228Z,37.40
2022-09-12T12:31:32.508Z,34.28
2022-09-12T12:34:30.379Z,33.28
2022-09-12T12:37:05.531Z,33.97
2022-09-12T12:40:01.717Z,33.37
2022-09-12T12:43:17.649Z,31.89
2022-09-12T12:46:06.606Z,30.62
2022-09-12T12:49:10.211Z,29.85
2022-09-12T12:51:59.166Z,29.30
2022-09-12T12:54:56.034Z,28.84
2022-09-12T12:57:36.670Z,29.20
2022-09-12T13:00:30.702Z,28.88
2022-09-12T13:03:12.957Z,28.61
2022-09-12T13:05:47.045Z,29.67
2022-09-12T13:08:32.793Z,31.31
2022-09-12T13:11:08.195Z,32.49
2022-09-12T13:13:43.787Z,33.34
2022-09-12T13:16:34.480Z,34.25
2022-09-12T13:19:13.812Z,33.86
2022-09-12T13:21:58.688Z,32.81
2022-09-12T13:24:28.759Z,31.48
2022-09-12T13:26:59.738Z,30.64
2022-09-12T13:29:31.513Z,29.99
2022-09-12T13:32:05.993Z,29.39
2022-09-12T13:34:40.338Z,28.90
2022-09-12T13:37:34.434Z,28.52
2022-09-12T13:40:30.847Z,28.10
2022-09-12T13:43:28.206Z,27.70
2022-09-12T13:45:58.646Z,27.40
2022-09-12T13:48:31.584Z,27.15
2022-09-12T13:51:04.497Z,27.56
2022-09-12T13:53:46.895Z,28.46
2022-09-12T13:56:20.822Z,28.89
2022-09-12T13:58:57.333Z,28.74
2022-09-12T14:01:39.757Z,28.96
2022-09-12T14:04:32.621Z,29.61
2022-09-12T14:07:05.201Z,29.90
2022-09-12T14:09:41.790Z,30.01
2022-09-12T14:12:27.296Z,29.99
2022-09-12T14:14:57.427Z,29.95
2022-09-12T14:17:32.524Z,29.64
2022-09-12T14:20:10.217Z,29.26
2022-09-12T14:22:40.958Z,28.76
2022-09-12T14:25:19.413Z,28.41
2022-09-12T14:27:54.133Z,28.13
2022-09-12T14:30:28.103Z,27.93
2022-09-12T14:33:21.033Z,27.84
2022-09-12T14:35:56.052Z,27.77
2022-09-12T14:38:34.056Z,27.87
2022-09-12T14:41:09.552Z,27.91
2022-09-12T14:43:42.736Z,27.93
2022-09-12T14:46:22.246Z,27.93
2022-09-12T14:48:56.625Z,27.81
2022-09-12T14:51:34.960Z,27.57
2022-09-12T14:54:05.584Z,27.37
2022-09-12T14:56:45.599Z,27.21
2022-09-12T14:59:32.685Z,26.97
2022-09-12T15:02:25.266Z,26.69
2022-09-12T15:04:57.337Z,26.52
2022-09-12T15:07:36.432Z,26.27
2022-09-12T15:10:22.195Z,26.08
2022-09-12T15:12:53.110Z,25.86
2022-09-12T15:15:24.355Z,25.66
2022-09-12T15:17:54.432Z,25.48
2022-09-12T15:20:24.706Z,25.32
2022-09-12T15:22:57.511Z,25.11
2022-09-12T15:25:27.608Z,24.94
2022-09-12T15:27:57.788Z,24.81
2022-09-12T15:30:27.931Z,24.67
2022-09-12T15:33:00.159Z,24.51
2022-09-12T15:35:35.068Z,24.33
2022-09-12T15:38:07.951Z,24.23
2022-09-12T15:40:38.166Z,24.07
2022-09-12T15:43:08.458Z,23.91
2022-09-12T15:45:38.765Z,23.72
2022-09-12T15:48:09.713Z,23.64
2022-09-12T15:50:39.900Z,23.53
2022-09-12T15:53:16.880Z,23.50
2022-09-12T15:55:47.684Z,23.40
2022-09-12T15:58:17.887Z,23.36
2022-09-12T16:00:48.140Z,23.25
2022-09-12T16:03:25.605Z,23.15
2022-09-12T16:06:01.180Z,23.10
2022-09-12T16:08:35.198Z,23.02
2022-09-12T16:11:08.511Z,22.94
2022-09-12T16:13:38.659Z,22.87
2022-09-12T16:16:09.945Z,22.80
2022-09-12T16:18:42.567Z,22.73
2022-09-12T16:21:15.278Z,22.69
2022-09-12T16:23:49.591Z,22.63
2022-09-12T16:26:21.114Z,22.61
2022-09-12T16:28:51.816Z,22.55
2022-09-12T16:31:21.979Z,22.49
2022-09-12T16:33:53.084Z,22.40
2022-09-12T16:36:24.990Z,22.35
2022-09-12T16:38:58.020Z,22.29
2022-09-12T16:41:28.533Z,22.26
2022-09-12T16:43:58.792Z,22.20
2022-09-12T16:46:31.464Z,22.11
2022-09-12T16:49:02.056Z,22.05
2022-09-12T16:51:36.570Z,22.02
2022-09-12T16:54:09.270Z,21.97
2022-09-12T16:56:39.378Z,21.94
2022-09-12T16:59:09.838Z,21.91
2022-09-12T17:01:40.023Z,21.87
2022-09-12T17:04:10.182Z,21.83
2022-09-12T17:06:41.999Z,21.78
2022-09-12T17:09:18.666Z,21.73
2022-09-12T17:11:50.441Z,21.69
2022-09-12T17:14:20.947Z,21.60
2022-09-12T17:16:52.073Z,21.54
2022-09-12T17:19:26.554Z,21.44
2022-09-12T17:21:57.178Z,21.30
2022-09-12T17:24:29.701Z,21.16
2022-09-12T17:26:59.901Z,21.04
2022-09-12T17:29:30.048Z,20.96
2022-09-12T17:32:00.149Z,20.85
2022-09-12T17:34:30.271Z,20.85
2022-09-12T17:37:00.361Z,20.88
2022-09-12T17:39:33.131Z,20.81
2022-09-12T17:42:03.668Z,20.78
2022-09-12T17:44:34.598Z,20.62
2022-09-12T17:47:04.910Z,20.56
2022-09-12T17:49:36.804Z,20.50
2022-09-12T17:52:06.899Z,20.48
2022-09-12T17:54:39.931Z,20.46
2022-09-12T17:57:10.068Z,20.38
2022-09-12T17:59:40.189Z,20.30
2022-09-12T18:02:15.819Z,20.25
2022-09-12T18:04:48.800Z,20.19
2022-09-12T18:07:20.901Z,20.18
2022-09-12T18:09:55.223Z,20.14
2022-09-12T18:12:25.305Z,20.09
2022-09-12T18:14:55.384Z,20.06
2022-09-12T18:17:25.426Z,19.95
2022-09-12T18:19:55.589Z,19.87
2022-09-12T18:22:25.720Z,19.78
2022-09-12T18:24:58.393Z,19.70
2022-09-12T18:27:28.437Z,19.65
2022-09-12T18:30:19.527Z,19.59
2022-09-12T18:32:48.702Z,19.50
2022-09-12T18:35:19.213Z,19.39
2022-09-12T18:37:49.231Z,19.26
2022-09-12T18:40:22.136Z,19.15
2022-09-12T18:42:52.580Z,19.06
2022-09-12T18:45:22.658Z,18.97
2022-09-12T18:47:52.705Z,18.90
2022-09-12T18:50:23.264Z,18.86
2022-09-12T18:52:59.113Z,18.81
2022-09-12T18:55:33.637Z,18.71
2022-09-12T18:58:03.733Z,18.60
2022-09-12T19:00:33.816Z,18.46
2022-09-12T19:03:04.608Z,18.41
2022-09-12T19:05:35.517Z,18.37
2022-09-12T19:08:06.070Z,18.35
2022-09-12T19:10:38.764Z,18.34
2022-09-12T19:13:08.880Z,18.25
2022-09-12T19:15:43.254Z,18.27
2022-09-12T19:18:13.485Z,18.22
2022-09-12T19:20:43.565Z,18.15
2022-09-12T19:23:13.851Z,18.13
2022-09-12T19:25:46.547Z,18.13
2022-09-12T19:28:16.621Z,18.13
2022-09-12T19:30:50.572Z,18.11
2022-09-12T19:33:20.809Z,18.14
2022-09-12T19:35:51.720Z,18.12
2022-09-12T19:38:22.077Z,18.10
2022-09-12T19:41:02.831Z,18.03
2022-09-12T19:43:33.516Z,17.98
2022-09-12T19:46:04.530Z,17.98
2022-09-12T19:48:34.951Z,17.95
2022-09-12T19:51:07.143Z,17.93
2022-09-12T19:53:38.338Z,17.96
2022-09-12T19:56:13.383Z,17.97
2022-09-12T19:58:45.912Z,17.95
2022-09-12T20:01:19.083Z,17.91
2022-09-12T20:03:51.801Z,17.84
2022-09-12T20:06:22.622Z,17.79
2022-09-12T20:08:52.793Z,17.74
2022-09-12T20:11:27.979Z,17.69
2022-09-12T20:13:58.141Z,17.62
2022-09-12T20:16:30.277Z,17.58
2022-09-12T20:19:03.638Z,17.55
2022-09-12T20:21:36.078Z,17.48
2022-09-12T20:24:09.501Z,17.46
2022-09-12T20:26:43.404Z,17.42
2022-09-12T20:29:14.210Z,17.40
2022-09-12T20:31:44.937Z,17.40
2022-09-12T20:34:19.240Z,17.46
2022-09-12T20:36:49.662Z,17.52
2022-09-12T20:39:23.050Z,17.59
2022-09-12T20:41:55.777Z,17.62
2022-09-12T20:44:25.852Z,17.69
2022-09-12T20:46:55.975Z,17.75
2022-09-12T20:49:26.271Z,17.70
2022-09-12T20:51:56.474Z,17.75
2022-09-12T20:54:26.801Z,17.73
2022-09-12T20:56:59.509Z,17.70
2022-09-12T20:59:29.633Z,17.66
2022-09-12T21:02:00.114Z,17.67
2022-09-12T21:04:30.272Z,17.70
2022-09-12T21:07:00.256Z,17.73
2022-09-12T21:09:30.249Z,17.72
2022-09-12T21:12:03.003Z,17.71
2022-09-12T21:14:33.230Z,17.62
2022-09-12T21:17:03.968Z,17.61
2022-09-12T21:19:35.804Z,17.61
2022-09-12T21:22:06.285Z,17.56
2022-09-12T21:24:36.417Z,17.57
2022-09-12T21:27:09.312Z,17.54
2022-09-12T21:29:39.533Z,17.51
2022-09-12T21:32:14.056Z,17.57
2022-09-12T21:34:44.572Z,17.53
2022-09-12T21:37:14.759Z,17.57
2022-09-12T21:39:45.056Z,17.56
2022-09-12T21:42:17.898Z,17.52
2022-09-12T21:44:48.217Z,17.48
2022-09-12T21:47:18.650Z,17.51
2022-09-12T21:49:49.073Z,17.47
2022-09-12T21:52:19.340Z,17.38
2022-09-12T21:54:49.525Z,17.47
2022-09-12T21:57:22.344Z,17.49
2022-09-12T21:59:52.629Z,17.50
2022-09-12T22:02:23.205Z,17.49
2022-09-12T22:04:53.390Z,17.53
2022-09-12T22:07:25.069Z,17.50
2022-09-12T22:09:55.267Z,17.51
2022-09-12T22:12:28.914Z,17.50
2022-09-12T22:14:59.015Z,17.44
2022-09-12T22:17:29.984Z,17.51
2022-09-12T22:20:00.128Z,17.52
2022-09-12T22:22:42.747Z,17.58
2022-09-12T22:25:13.114Z,17.61
2022-09-12T22:27:46.212Z,17.52
2022-09-12T22:30:16.449Z,17.48
2022-09-12T22:32:48.268Z,17.51
2022-09-12T22:35:18.930Z,17.56
2022-09-12T22:37:51.980Z,17.57
2022-09-12T22:40:22.310Z,17.51
2022-09-12T22:42:57.252Z,17.56
2022-09-12T22:45:27.551Z,17.54
2022-09-12T22:48:00.830Z,17.53
2022-09-12T22:50:31.554Z,17.55
2022-09-12T22:53:01.619Z,17.52
2022-09-12T22:55:31.805Z,17.52
2022-09-12T22:58:04.477Z,17.61
2022-09-12T23:00:34.714Z,17.54
2022-09-12T23:03:04.922Z,17.58
2022-09-12T23:05:35.022Z,17.57
2022-09-12T23:08:05.721Z,17.61
2022-09-12T23:10:38.604Z,17.67
2022-09-12T23:13:11.264Z,17.65
2022-09-12T23:15:41.633Z,17.61
2022-09-12T23:18:11.759Z,17.69
2022-09-12T23:20:41.799Z,17.63
2022-09-12T23:23:11.898Z,17.56
2022-09-12T23:25:41.954Z,17.61
2022-09-12T23:28:14.820Z,17.61
2022-09-12T23:30:44.904Z,17.63
2022-09-12T23:33:15.106Z,17.60
2022-09-12T23:35:45.141Z,17.67
2022-09-12T23:38:15.288Z,17.65
2022-09-12T23:40:45.276Z,17.58
2022-09-12T23:43:17.851Z,17.54
2022-09-12T23:45:48.075Z,17.53
2022-09-12T23:48:18.266Z,17.55
2022-09-12T23:50:49.112Z,17.54
2022-09-12T23:53:20.168Z,17.48
2022-09-12T23:55:51.054Z,17.55
2022-09-12T23:58:24.098Z,17.54
